sensor_id;sensor_type;location;lat;lon;timestamp;pressure;altitude;pressure_sealevel;temperature;humidity
47556;BME280;33291;46.222;26.460;2023-07-16T00:00:17;96839.59;;;18.05;95.39
47556;BME280;33291;46.222;26.460;2023-07-16T00:02:45;96848.53;;;18.04;95.70
47556;BME280;33291;46.222;26.460;2023-07-16T00:05:10;96844.88;;;18.05;95.93
47556;BME280;33291;46.222;26.460;2023-07-16T00:07:36;96845.72;;;18.05;95.77
47556;BME280;33291;46.222;26.460;2023-07-16T00:10:01;96849.34;;;18.04;95.73
47556;BME280;33291;46.222;26.460;2023-07-16T00:12:27;96847.06;;;18.01;95.81
47556;BME280;33291;46.222;26.460;2023-07-16T00:14:53;96845.22;;;18.02;95.57
47556;BME280;33291;46.222;26.460;2023-07-16T00:17:18;96844.25;;;18.03;95.29
47556;BME280;33291;46.222;26.460;2023-07-16T00:19:43;96844.25;;;18.03;95.12
47556;BME280;33291;46.222;26.460;2023-07-16T00:22:09;96837.69;;;17.99;95.24
47556;BME280;33291;46.222;26.460;2023-07-16T00:24:34;96835.41;;;17.96;95.64
47556;BME280;33291;46.222;26.460;2023-07-16T00:27:00;96834.09;;;17.91;95.95
47556;BME280;33291;46.222;26.460;2023-07-16T00:29:25;96834.44;;;17.88;96.13
47556;BME280;33291;46.222;26.460;2023-07-16T00:31:51;96810.91;;;17.64;96.69
47556;BME280;33291;46.222;26.460;2023-07-16T00:34:16;96837.50;;;17.77;97.17
47556;BME280;33291;46.222;26.460;2023-07-16T00:36:41;96826.34;;;17.67;97.22
47556;BME280;33291;46.222;26.460;2023-07-16T00:39:07;96832.41;;;17.75;96.95
47556;BME280;33291;46.222;26.460;2023-07-16T00:41:32;96815.13;;;17.73;96.78
47556;BME280;33291;46.222;26.460;2023-07-16T00:43:58;96829.41;;;17.79;97.01
47556;BME280;33291;46.222;26.460;2023-07-16T00:46:24;96816.75;;;17.74;96.83
47556;BME280;33291;46.222;26.460;2023-07-16T00:48:49;96825.31;;;17.76;96.60
47556;BME280;33291;46.222;26.460;2023-07-16T00:51:15;96814.31;;;17.72;96.24
47556;BME280;33291;46.222;26.460;2023-07-16T00:53:41;96822.38;;;17.71;96.48
47556;BME280;33291;46.222;26.460;2023-07-16T00:56:09;96820.56;;;17.71;96.74
47556;BME280;33291;46.222;26.460;2023-07-16T00:58:35;96823.38;;;17.70;96.98
47556;BME280;33291;46.222;26.460;2023-07-16T01:01:00;96821.94;;;17.67;97.18
47556;BME280;33291;46.222;26.460;2023-07-16T01:03:26;96824.38;;;17.69;96.93
47556;BME280;33291;46.222;26.460;2023-07-16T01:09:15;96829.66;;;17.69;96.84
47556;BME280;33291;46.222;26.460;2023-07-16T01:11:45;96830.66;;;17.68;96.62
47556;BME280;33291;46.222;26.460;2023-07-16T01:14:12;96823.09;;;17.65;96.53
47556;BME280;33291;46.222;26.460;2023-07-16T01:16:38;96820.28;;;17.66;96.42
47556;BME280;33291;46.222;26.460;2023-07-16T01:19:04;96827.06;;;17.61;96.16
47556;BME280;33291;46.222;26.460;2023-07-16T01:24:30;96824.16;;;17.55;96.92
47556;BME280;33291;46.222;26.460;2023-07-16T01:29:58;96800.47;;;17.47;97.06
47556;BME280;33291;46.222;26.460;2023-07-16T01:32:28;96815.41;;;17.55;97.12
47556;BME280;33291;46.222;26.460;2023-07-16T01:34:53;96812.75;;;17.55;96.94
47556;BME280;33291;46.222;26.460;2023-07-16T01:37:19;96812.31;;;17.51;96.55
47556;BME280;33291;46.222;26.460;2023-07-16T01:39:45;96807.91;;;17.44;96.48
47556;BME280;33291;46.222;26.460;2023-07-16T01:42:10;96806.44;;;17.41;96.61
47556;BME280;33291;46.222;26.460;2023-07-16T01:44:36;96802.22;;;17.32;96.94
47556;BME280;33291;46.222;26.460;2023-07-16T01:47:11;96793.03;;;17.28;97.39
47556;BME280;33291;46.222;26.460;2023-07-16T01:49:38;96804.50;;;17.35;97.23
47556;BME280;33291;46.222;26.460;2023-07-16T01:52:06;96800.22;;;17.34;97.31
47556;BME280;33291;46.222;26.460;2023-07-16T01:54:31;96803.88;;;17.33;97.33
47556;BME280;33291;46.222;26.460;2023-07-16T01:56:57;96793.34;;;17.33;97.38
47556;BME280;33291;46.222;26.460;2023-07-16T01:59:22;96782.03;;;17.24;97.11
47556;BME280;33291;46.222;26.460;2023-07-16T02:01:48;96796.00;;;17.25;96.99
47556;BME280;33291;46.222;26.460;2023-07-16T02:04:13;96798.28;;;17.28;97.13
47556;BME280;33291;46.222;26.460;2023-07-16T02:06:39;96803.72;;;17.26;96.71
47556;BME280;33291;46.222;26.460;2023-07-16T02:09:04;96806.06;;;17.21;96.71
47556;BME280;33291;46.222;26.460;2023-07-16T02:11:30;96793.59;;;17.15;96.94
47556;BME280;33291;46.222;26.460;2023-07-16T02:13:55;96805.97;;;17.14;97.16
47556;BME280;33291;46.222;26.460;2023-07-16T02:16:20;96807.91;;;17.12;97.37
47556;BME280;33291;46.222;26.460;2023-07-16T02:18:46;96809.28;;;17.08;97.53
47556;BME280;33291;46.222;26.460;2023-07-16T02:21:11;96798.94;;;17.07;97.62
47556;BME280;33291;46.222;26.460;2023-07-16T02:23:37;96804.19;;;17.07;97.62
47556;BME280;33291;46.222;26.460;2023-07-16T02:26:02;96807.97;;;17.04;97.61
47556;BME280;33291;46.222;26.460;2023-07-16T02:28:28;96797.97;;;16.99;97.67
47556;BME280;33291;46.222;26.460;2023-07-16T02:30:53;96799.13;;;16.97;97.79
47556;BME280;33291;46.222;26.460;2023-07-16T02:33:19;96806.03;;;16.98;97.64
47556;BME280;33291;46.222;26.460;2023-07-16T02:35:48;96802.72;;;16.96;97.73
47556;BME280;33291;46.222;26.460;2023-07-16T02:38:15;96784.38;;;16.87;98.09
47556;BME280;33291;46.222;26.460;2023-07-16T02:40:45;96781.88;;;16.86;98.12
47556;BME280;33291;46.222;26.460;2023-07-16T02:43:10;96789.09;;;16.92;98.26
47556;BME280;33291;46.222;26.460;2023-07-16T02:45:36;96786.47;;;16.92;98.21
47556;BME280;33291;46.222;26.460;2023-07-16T02:48:02;96794.88;;;16.87;97.93
47556;BME280;33291;46.222;26.460;2023-07-16T02:50:27;96791.59;;;16.85;98.19
47556;BME280;33291;46.222;26.460;2023-07-16T02:52:53;96790.09;;;16.83;98.02
47556;BME280;33291;46.222;26.460;2023-07-16T02:55:18;96788.00;;;16.78;97.88
47556;BME280;33291;46.222;26.460;2023-07-16T02:57:43;96790.97;;;16.75;97.95
47556;BME280;33291;46.222;26.460;2023-07-16T03:00:09;96790.97;;;16.75;98.27
47556;BME280;33291;46.222;26.460;2023-07-16T03:02:35;96793.75;;;16.74;98.23
47556;BME280;33291;46.222;26.460;2023-07-16T03:05:00;96794.91;;;16.71;98.25
47556;BME280;33291;46.222;26.460;2023-07-16T03:07:26;96778.69;;;16.59;98.19
47556;BME280;33291;46.222;26.460;2023-07-16T03:09:51;96796.06;;;16.68;98.23
47556;BME280;33291;46.222;26.460;2023-07-16T03:12:17;96796.56;;;16.64;98.18
47556;BME280;33291;46.222;26.460;2023-07-16T03:14:43;96792.66;;;16.60;98.71
47556;BME280;33291;46.222;26.460;2023-07-16T03:17:08;96795.59;;;16.65;98.78
47556;BME280;33291;46.222;26.460;2023-07-16T03:19:34;96787.88;;;16.63;98.92
47556;BME280;33291;46.222;26.460;2023-07-16T03:22:00;96790.00;;;16.68;99.25
47556;BME280;33291;46.222;26.460;2023-07-16T03:24:25;96799.53;;;16.69;99.31
47556;BME280;33291;46.222;26.460;2023-07-16T03:26:51;96788.34;;;16.67;99.17
47556;BME280;33291;46.222;26.460;2023-07-16T03:29:16;96796.56;;;16.72;99.34
47556;BME280;33291;46.222;26.460;2023-07-16T03:31:41;96793.94;;;16.72;99.08
47556;BME280;33291;46.222;26.460;2023-07-16T03:34:07;96782.75;;;16.70;99.00
47556;BME280;33291;46.222;26.460;2023-07-16T03:36:32;96794.63;;;16.66;98.91
47556;BME280;33291;46.222;26.460;2023-07-16T03:38:58;96796.25;;;16.67;98.78
47556;BME280;33291;46.222;26.460;2023-07-16T03:41:23;96791.31;;;16.64;99.04
47556;BME280;33291;46.222;26.460;2023-07-16T03:43:49;96797.06;;;16.67;99.33
47556;BME280;33291;46.222;26.460;2023-07-16T03:46:14;96789.03;;;16.69;99.79
47556;BME280;33291;46.222;26.460;2023-07-16T03:48:40;96787.84;;;16.72;99.82
47556;BME280;33291;46.222;26.460;2023-07-16T03:51:05;96789.31;;;16.74;99.69
47556;BME280;33291;46.222;26.460;2023-07-16T03:53:30;96791.78;;;16.76;99.48
47556;BME280;33291;46.222;26.460;2023-07-16T03:55:56;96794.22;;;16.77;99.42
47556;BME280;33291;46.222;26.460;2023-07-16T03:58:21;96788.50;;;16.74;99.63
47556;BME280;33291;46.222;26.460;2023-07-16T04:00:48;96790.63;;;16.78;99.76
47556;BME280;33291;46.222;26.460;2023-07-16T04:03:13;96795.53;;;16.81;99.92
47556;BME280;33291;46.222;26.460;2023-07-16T04:05:39;96795.53;;;16.81;99.60
47556;BME280;33291;46.222;26.460;2023-07-16T04:08:04;96788.81;;;16.79;99.48
47556;BME280;33291;46.222;26.460;2023-07-16T04:10:30;96804.59;;;16.87;99.59
47556;BME280;33291;46.222;26.460;2023-07-16T04:12:55;96805.06;;;16.91;99.70
47556;BME280;33291;46.222;26.460;2023-07-16T04:15:21;96801.13;;;16.95;99.62
47556;BME280;33291;46.222;26.460;2023-07-16T04:17:46;96792.22;;;16.96;99.83
47556;BME280;33291;46.222;26.460;2023-07-16T04:20:11;96779.88;;;16.96;99.81
47556;BME280;33291;46.222;26.460;2023-07-16T04:22:37;96793.16;;;17.03;99.98
47556;BME280;33291;46.222;26.460;2023-07-16T04:25:03;96790.84;;;17.08;99.71
47556;BME280;33291;46.222;26.460;2023-07-16T04:27:29;96793.44;;;17.16;99.58
47556;BME280;33291;46.222;26.460;2023-07-16T04:29:54;96791.09;;;17.21;99.53
47556;BME280;33291;46.222;26.460;2023-07-16T04:32:20;96789.41;;;17.29;99.75
47556;BME280;33291;46.222;26.460;2023-07-16T04:34:45;96800.22;;;17.34;99.78
47556;BME280;33291;46.222;26.460;2023-07-16T04:37:11;96795.09;;;17.40;99.77
47556;BME280;33291;46.222;26.460;2023-07-16T04:39:36;96799.50;;;17.48;99.92
47556;BME280;33291;46.222;26.460;2023-07-16T04:42:02;96781.88;;;17.49;99.97
47556;BME280;33291;46.222;26.460;2023-07-16T04:44:27;96786.25;;;17.56;99.78
47556;BME280;33291;46.222;26.460;2023-07-16T04:46:52;96796.41;;;17.68;100.00
47556;BME280;33291;46.222;26.460;2023-07-16T04:49:18;96799.31;;;17.73;100.00
47556;BME280;33291;46.222;26.460;2023-07-16T04:51:43;96805.06;;;17.76;100.00
47556;BME280;33291;46.222;26.460;2023-07-16T04:54:09;96797.44;;;17.82;99.93
47556;BME280;33291;46.222;26.460;2023-07-16T04:56:34;96794.28;;;17.86;99.82
47556;BME280;33291;46.222;26.460;2023-07-16T04:59:00;96797.22;;;17.91;99.83
47556;BME280;33291;46.222;26.460;2023-07-16T05:01:25;96790.41;;;17.97;100.00
47556;BME280;33291;46.222;26.460;2023-07-16T05:03:52;96797.78;;;18.02;99.79
47556;BME280;33291;46.222;26.460;2023-07-16T05:06:17;96798.72;;;18.09;99.40
47556;BME280;33291;46.222;26.460;2023-07-16T05:08:43;96782.53;;;18.12;99.39
47556;BME280;33291;46.222;26.460;2023-07-16T05:11:08;96797.72;;;18.25;99.27
47556;BME280;33291;46.222;26.460;2023-07-16T05:13:34;96787.66;;;18.28;98.79
47556;BME280;33291;46.222;26.460;2023-07-16T05:15:59;96792.47;;;18.40;98.29
47556;BME280;33291;46.222;26.460;2023-07-16T05:18:25;96797.69;;;18.48;97.65
47556;BME280;33291;46.222;26.460;2023-07-16T05:20:50;96790.47;;;18.57;97.37
47556;BME280;33291;46.222;26.460;2023-07-16T05:23:16;96797.50;;;18.64;97.21
47556;BME280;33291;46.222;26.460;2023-07-16T05:25:48;96789.84;;;18.70;97.08
47556;BME280;33291;46.222;26.460;2023-07-16T05:28:15;96802.13;;;18.77;96.98
47556;BME280;33291;46.222;26.460;2023-07-16T05:30:40;96790.03;;;18.83;96.87
47556;BME280;33291;46.222;26.460;2023-07-16T05:33:06;96799.94;;;18.96;96.67
47556;BME280;33291;46.222;26.460;2023-07-16T05:35:31;96796.38;;;19.04;95.98
47556;BME280;33291;46.222;26.460;2023-07-16T05:37:57;96794.03;;;19.09;95.78
47556;BME280;33291;46.222;26.460;2023-07-16T05:40:23;96787.16;;;19.14;95.23
47556;BME280;33291;46.222;26.460;2023-07-16T05:42:49;96793.06;;;19.31;94.85
47556;BME280;33291;46.222;26.460;2023-07-16T05:45:14;96798.66;;;19.43;94.52
47556;BME280;33291;46.222;26.460;2023-07-16T05:47:40;96803.88;;;19.58;94.52
47556;BME280;33291;46.222;26.460;2023-07-16T05:50:06;96794.44;;;19.70;94.26
47556;BME280;33291;46.222;26.460;2023-07-16T05:52:31;96788.41;;;19.77;93.81
47556;BME280;33291;46.222;26.460;2023-07-16T05:54:57;96791.19;;;19.90;93.13
47556;BME280;33291;46.222;26.460;2023-07-16T05:57:22;96794.94;;;20.02;92.84
47556;BME280;33291;46.222;26.460;2023-07-16T05:59:48;96785.50;;;20.15;92.21
47556;BME280;33291;46.222;26.460;2023-07-16T06:02:13;96789.44;;;20.26;91.92
47556;BME280;33291;46.222;26.460;2023-07-16T06:04:39;96793.38;;;20.36;90.96
47556;BME280;33291;46.222;26.460;2023-07-16T06:07:04;96778.78;;;20.47;90.58
47556;BME280;33291;46.222;26.460;2023-07-16T06:09:30;96783.31;;;20.60;89.96
47556;BME280;33291;46.222;26.460;2023-07-16T06:11:55;96784.44;;;20.72;89.99
47556;BME280;33291;46.222;26.460;2023-07-16T06:14:21;96775.75;;;20.85;89.41
47556;BME280;33291;46.222;26.460;2023-07-16T06:16:46;96782.31;;;20.96;89.30
47556;BME280;33291;46.222;26.460;2023-07-16T06:19:12;96779.28;;;21.06;89.04
47556;BME280;33291;46.222;26.460;2023-07-16T06:21:37;96773.22;;;21.19;88.65
47556;BME280;33291;46.222;26.460;2023-07-16T06:24:02;96772.44;;;21.32;87.46
47556;BME280;33291;46.222;26.460;2023-07-16T06:26:28;96775.97;;;21.45;86.47
47556;BME280;33291;46.222;26.460;2023-07-16T06:28:53;96763.97;;;21.56;85.99
47556;BME280;33291;46.222;26.460;2023-07-16T06:31:19;96769.88;;;21.65;85.80
47556;BME280;33291;46.222;26.460;2023-07-16T06:33:44;96770.09;;;21.77;85.59
47556;BME280;33291;46.222;26.460;2023-07-16T06:36:14;96765.22;;;21.87;85.46
47556;BME280;33291;46.222;26.460;2023-07-16T06:38:40;96760.31;;;21.97;84.83
47556;BME280;33291;46.222;26.460;2023-07-16T06:41:06;96757.66;;;22.11;84.84
47556;BME280;33291;46.222;26.460;2023-07-16T06:43:31;96766.81;;;22.22;85.38
47556;BME280;33291;46.222;26.460;2023-07-16T06:45:57;96756.22;;;22.35;84.36
47556;BME280;33291;46.222;26.460;2023-07-16T06:48:22;96751.28;;;22.45;83.03
47556;BME280;33291;46.222;26.460;2023-07-16T06:50:49;96751.25;;;22.59;81.75
47556;BME280;33291;46.222;26.460;2023-07-16T06:53:15;96758.75;;;22.75;80.37
47556;BME280;33291;46.222;26.460;2023-07-16T06:55:41;96748.53;;;22.85;79.47
47556;BME280;33291;46.222;26.460;2023-07-16T06:58:10;96752.72;;;23.00;79.29
47556;BME280;33291;46.222;26.460;2023-07-16T07:00:36;96749.84;;;23.15;79.06
47556;BME280;33291;46.222;26.460;2023-07-16T07:03:02;96743.25;;;23.24;78.52
47556;BME280;33291;46.222;26.460;2023-07-16T07:05:27;96756.84;;;23.41;77.52
47556;BME280;33291;46.222;26.460;2023-07-16T07:07:53;96752.44;;;23.53;77.33
47556;BME280;33291;46.222;26.460;2023-07-16T07:10:18;96759.75;;;23.65;76.69
47556;BME280;33291;46.222;26.460;2023-07-16T07:12:44;96747.44;;;23.70;75.85
47556;BME280;33291;46.222;26.460;2023-07-16T07:15:10;96751.06;;;23.76;75.55
47556;BME280;33291;46.222;26.460;2023-07-16T07:17:36;96753.44;;;23.91;75.44
47556;BME280;33291;46.222;26.460;2023-07-16T07:20:02;96765.44;;;24.00;75.69
47556;BME280;33291;46.222;26.460;2023-07-16T07:22:27;96762.72;;;24.07;76.20
47556;BME280;33291;46.222;26.460;2023-07-16T07:24:53;96758.16;;;24.14;75.73
47556;BME280;33291;46.222;26.460;2023-07-16T07:27:18;96755.44;;;24.21;74.90
47556;BME280;33291;46.222;26.460;2023-07-16T07:29:44;96753.69;;;24.33;74.74
47556;BME280;33291;46.222;26.460;2023-07-16T07:32:11;96753.81;;;24.38;74.78
47556;BME280;33291;46.222;26.460;2023-07-16T07:34:38;96748.59;;;24.50;73.89
47556;BME280;33291;46.222;26.460;2023-07-16T07:37:04;96755.69;;;24.56;74.52
47556;BME280;33291;46.222;26.460;2023-07-16T07:39:30;96755.78;;;24.68;74.35
47556;BME280;33291;46.222;26.460;2023-07-16T07:41:55;96753.78;;;24.82;73.52
47556;BME280;33291;46.222;26.460;2023-07-16T07:44:21;96751.31;;;24.99;73.53
47556;BME280;33291;46.222;26.460;2023-07-16T07:46:46;96747.69;;;25.12;71.99
47556;BME280;33291;46.222;26.460;2023-07-16T07:49:12;96739.50;;;25.25;70.18
47556;BME280;33291;46.222;26.460;2023-07-16T07:51:37;96734.22;;;25.37;68.82
47556;BME280;33291;46.222;26.460;2023-07-16T07:54:03;96714.19;;;25.34;68.92
47556;BME280;33291;46.222;26.460;2023-07-16T07:56:28;96731.97;;;25.64;69.25
47556;BME280;33291;46.222;26.460;2023-07-16T07:58:55;96737.00;;;25.73;67.80
47556;BME280;33291;46.222;26.460;2023-07-16T08:01:21;96727.13;;;25.73;65.44
47556;BME280;33291;46.222;26.460;2023-07-16T08:03:46;96724.22;;;25.75;64.48
47556;BME280;33291;46.222;26.460;2023-07-16T08:06:11;96735.50;;;25.77;64.61
47556;BME280;33291;46.222;26.460;2023-07-16T08:08:38;96727.03;;;25.80;64.55
47556;BME280;33291;46.222;26.460;2023-07-16T08:11:03;96713.78;;;25.73;65.09
47556;BME280;33291;46.222;26.460;2023-07-16T08:13:28;96733.97;;;25.81;64.87
47556;BME280;33291;46.222;26.460;2023-07-16T08:15:54;96728.88;;;25.91;62.32
47556;BME280;33291;46.222;26.460;2023-07-16T08:18:19;96727.25;;;25.90;60.35
47556;BME280;33291;46.222;26.460;2023-07-16T08:20:46;96729.81;;;25.85;61.29
47556;BME280;33291;46.222;26.460;2023-07-16T08:23:12;96737.59;;;25.86;62.15
47556;BME280;33291;46.222;26.460;2023-07-16T08:25:37;96729.69;;;25.92;63.29
47556;BME280;33291;46.222;26.460;2023-07-16T08:28:03;96735.06;;;26.03;62.13
47556;BME280;33291;46.222;26.460;2023-07-16T08:30:29;96733.34;;;26.09;60.54
47556;BME280;33291;46.222;26.460;2023-07-16T08:32:54;96723.22;;;26.11;60.12
47556;BME280;33291;46.222;26.460;2023-07-16T08:35:20;96728.34;;;26.24;61.35
47556;BME280;33291;46.222;26.460;2023-07-16T08:37:45;96726.94;;;26.34;61.59
47556;BME280;33291;46.222;26.460;2023-07-16T08:40:12;96721.50;;;26.40;61.60
47556;BME280;33291;46.222;26.460;2023-07-16T08:42:45;96710.66;;;26.47;59.91
47556;BME280;33291;46.222;26.460;2023-07-16T08:45:12;96722.69;;;26.62;58.18
47556;BME280;33291;46.222;26.460;2023-07-16T08:47:39;96712.97;;;26.67;57.14
47556;BME280;33291;46.222;26.460;2023-07-16T08:50:05;96718.19;;;26.62;56.85
47556;BME280;33291;46.222;26.460;2023-07-16T08:52:31;96717.13;;;26.75;57.23
47556;BME280;33291;46.222;26.460;2023-07-16T08:54:57;96721.66;;;26.74;56.97
47556;BME280;33291;46.222;26.460;2023-07-16T08:57:23;96718.91;;;26.69;56.41
47556;BME280;33291;46.222;26.460;2023-07-16T08:59:49;96716.25;;;26.69;55.61
47556;BME280;33291;46.222;26.460;2023-07-16T09:02:17;96714.22;;;26.76;56.69
47556;BME280;33291;46.222;26.460;2023-07-16T09:04:44;96711.06;;;26.80;57.25
47556;BME280;33291;46.222;26.460;2023-07-16T09:07:11;96703.06;;;26.80;56.69
47556;BME280;33291;46.222;26.460;2023-07-16T09:09:37;96711.53;;;26.76;56.49
47556;BME280;33291;46.222;26.460;2023-07-16T09:12:02;96703.44;;;26.71;57.56
47556;BME280;33291;46.222;26.460;2023-07-16T09:14:28;96709.25;;;26.68;59.57
47556;BME280;33291;46.222;26.460;2023-07-16T09:16:53;96703.91;;;26.68;59.13
47556;BME280;33291;46.222;26.460;2023-07-16T09:19:21;96704.69;;;26.81;57.33
47556;BME280;33291;46.222;26.460;2023-07-16T09:21:47;96710.91;;;26.98;57.61
47556;BME280;33291;46.222;26.460;2023-07-16T09:24:14;96703.19;;;27.13;54.23
47556;BME280;33291;46.222;26.460;2023-07-16T09:26:53;96700.75;;;27.29;52.32
47556;BME280;33291;46.222;26.460;2023-07-16T09:29:19;96703.56;;;27.34;52.15
47556;BME280;33291;46.222;26.460;2023-07-16T09:32:11;96710.28;;;27.37;51.62
47556;BME280;33291;46.222;26.460;2023-07-16T09:34:36;96712.47;;;27.40;52.03
47556;BME280;33291;46.222;26.460;2023-07-16T09:37:05;96711.19;;;27.42;52.31
47556;BME280;33291;46.222;26.460;2023-07-16T09:39:32;96712.41;;;27.52;52.76
47556;BME280;33291;46.222;26.460;2023-07-16T09:41:57;96707.25;;;27.62;52.08
47556;BME280;33291;46.222;26.460;2023-07-16T09:44:23;96703.97;;;27.77;51.07
47556;BME280;33291;46.222;26.460;2023-07-16T09:46:48;96692.72;;;27.75;51.44
47556;BME280;33291;46.222;26.460;2023-07-16T09:49:15;96702.50;;;27.86;50.92
47556;BME280;33291;46.222;26.460;2023-07-16T09:51:42;96702.25;;;27.88;52.04
47556;BME280;33291;46.222;26.460;2023-07-16T09:54:08;96699.53;;;27.99;51.10
47556;BME280;33291;46.222;26.460;2023-07-16T09:56:44;96692.69;;;28.09;50.89
47556;BME280;33291;46.222;26.460;2023-07-16T09:59:15;96696.09;;;28.21;49.72
47556;BME280;33291;46.222;26.460;2023-07-16T10:01:42;96685.25;;;28.33;50.01
47556;BME280;33291;46.222;26.460;2023-07-16T10:04:15;96700.59;;;28.38;49.46
47556;BME280;33291;46.222;26.460;2023-07-16T10:07:03;96693.44;;;28.43;48.43
47556;BME280;33291;46.222;26.460;2023-07-16T10:09:42;96666.00;;;28.36;48.09
47556;BME280;33291;46.222;26.460;2023-07-16T10:14:48;96692.09;;;28.63;48.00
47556;BME280;33291;46.222;26.460;2023-07-16T10:17:15;96691.56;;;28.61;47.57
47556;BME280;33291;46.222;26.460;2023-07-16T10:20:07;96690.22;;;28.63;47.30
47556;BME280;33291;46.222;26.460;2023-07-16T10:22:40;96693.47;;;28.65;47.95
47556;BME280;33291;46.222;26.460;2023-07-16T10:25:10;96681.31;;;28.58;47.97
47556;BME280;33291;46.222;26.460;2023-07-16T10:27:36;96686.03;;;28.73;47.70
47556;BME280;33291;46.222;26.460;2023-07-16T10:30:04;96689.31;;;28.75;47.26
47556;BME280;33291;46.222;26.460;2023-07-16T10:32:31;96676.81;;;28.85;46.38
47556;BME280;33291;46.222;26.460;2023-07-16T10:34:57;96680.38;;;28.91;46.61
47556;BME280;33291;46.222;26.460;2023-07-16T10:37:24;96672.06;;;28.93;46.90
47556;BME280;33291;46.222;26.460;2023-07-16T10:39:52;96682.84;;;28.98;48.19
47556;BME280;33291;46.222;26.460;2023-07-16T10:42:19;96676.97;;;29.01;47.15
47556;BME280;33291;46.222;26.460;2023-07-16T10:44:48;96659.00;;;29.01;46.32
47556;BME280;33291;46.222;26.460;2023-07-16T10:47:36;96657.19;;;29.07;48.88
47556;BME280;33291;46.222;26.460;2023-07-16T10:50:09;96652.88;;;29.06;48.72
47556;BME280;33291;46.222;26.460;2023-07-16T10:52:37;96652.59;;;29.02;50.04
47556;BME280;33291;46.222;26.460;2023-07-16T10:55:03;96657.44;;;29.05;48.61
47556;BME280;33291;46.222;26.460;2023-07-16T10:57:29;96658.56;;;29.10;48.20
47556;BME280;33291;46.222;26.460;2023-07-16T10:59:58;96642.59;;;28.93;48.42
47556;BME280;33291;46.222;26.460;2023-07-16T11:02:26;96657.16;;;29.02;47.81
47556;BME280;33291;46.222;26.460;2023-07-16T11:04:51;96662.66;;;28.90;48.21
47556;BME280;33291;46.222;26.460;2023-07-16T11:07:22;96666.53;;;28.77;49.59
47556;BME280;33291;46.222;26.460;2023-07-16T11:09:50;96658.19;;;28.51;52.82
47556;BME280;33291;46.222;26.460;2023-07-16T11:12:19;96649.44;;;28.39;50.45
47556;BME280;33291;46.222;26.460;2023-07-16T11:14:47;96660.56;;;28.26;50.89
47556;BME280;33291;46.222;26.460;2023-07-16T11:17:14;96662.59;;;28.18;51.08
47556;BME280;33291;46.222;26.460;2023-07-16T11:19:43;96655.84;;;28.16;51.10
47556;BME280;33291;46.222;26.460;2023-07-16T11:22:09;96661.69;;;28.13;51.88
47556;BME280;33291;46.222;26.460;2023-07-16T11:24:49;96655.06;;;28.15;53.11
47556;BME280;33291;46.222;26.460;2023-07-16T11:27:26;96655.84;;;28.16;54.74
47556;BME280;33291;46.222;26.460;2023-07-16T11:29:54;96656.75;;;28.22;54.98
47556;BME280;33291;46.222;26.460;2023-07-16T11:32:30;96639.94;;;28.26;52.85
47556;BME280;33291;46.222;26.460;2023-07-16T11:34:57;96653.88;;;28.50;51.70
47556;BME280;33291;46.222;26.460;2023-07-16T11:37:27;96655.22;;;28.70;47.74
47556;BME280;33291;46.222;26.460;2023-07-16T11:40:03;96648.88;;;28.81;48.35
47556;BME280;33291;46.222;26.460;2023-07-16T11:42:34;96650.97;;;29.01;47.69
47556;BME280;33291;46.222;26.460;2023-07-16T11:45:00;96647.06;;;29.14;47.34
47556;BME280;33291;46.222;26.460;2023-07-16T11:47:26;96642.91;;;29.23;46.35
47556;BME280;33291;46.222;26.460;2023-07-16T11:49:52;96644.28;;;29.31;46.83
47556;BME280;33291;46.222;26.460;2023-07-16T11:52:22;96644.59;;;29.35;46.51
47556;BME280;33291;46.222;26.460;2023-07-16T11:54:48;96646.19;;;29.31;45.71
47556;BME280;33291;46.222;26.460;2023-07-16T11:57:14;96647.75;;;29.27;45.18
47556;BME280;33291;46.222;26.460;2023-07-16T11:59:40;96633.66;;;29.14;44.37
47556;BME280;33291;46.222;26.460;2023-07-16T12:02:05;96644.69;;;29.18;44.11
47556;BME280;33291;46.222;26.460;2023-07-16T12:04:31;96637.53;;;29.23;44.38
47556;BME280;33291;46.222;26.460;2023-07-16T12:06:57;96638.69;;;29.38;43.89
47556;BME280;33291;46.222;26.460;2023-07-16T12:09:22;96637.69;;;29.44;43.36
47556;BME280;33291;46.222;26.460;2023-07-16T12:11:48;96623.81;;;29.52;42.16
47556;BME280;33291;46.222;26.460;2023-07-16T12:14:13;96616.88;;;29.56;42.84
47556;BME280;33291;46.222;26.460;2023-07-16T12:16:39;96619.06;;;29.65;43.30
47556;BME280;33291;46.222;26.460;2023-07-16T12:19:06;96628.22;;;29.69;42.73
47556;BME280;33291;46.222;26.460;2023-07-16T12:21:32;96615.00;;;29.62;42.59
47556;BME280;33291;46.222;26.460;2023-07-16T12:23:57;96617.41;;;29.58;42.44
47556;BME280;33291;46.222;26.460;2023-07-16T12:26:23;96614.97;;;29.57;44.99
47556;BME280;33291;46.222;26.460;2023-07-16T12:28:48;96613.59;;;29.49;46.98
47556;BME280;33291;46.222;26.460;2023-07-16T12:31:14;96609.50;;;29.41;47.69
47556;BME280;33291;46.222;26.460;2023-07-16T12:33:40;96617.03;;;29.45;46.56
47556;BME280;33291;46.222;26.460;2023-07-16T12:36:06;96615.41;;;29.44;46.65
47556;BME280;33291;46.222;26.460;2023-07-16T12:38:31;96613.31;;;29.51;45.17
47556;BME280;33291;46.222;26.460;2023-07-16T12:40:57;96611.44;;;29.51;42.51
47556;BME280;33291;46.222;26.460;2023-07-16T12:43:22;96606.91;;;29.52;40.95
47556;BME280;33291;46.222;26.460;2023-07-16T12:45:47;96601.78;;;29.50;40.76
47556;BME280;33291;46.222;26.460;2023-07-16T12:48:13;96598.00;;;29.46;41.86
47556;BME280;33291;46.222;26.460;2023-07-16T12:50:38;96592.03;;;29.39;42.13
47556;BME280;33291;46.222;26.460;2023-07-16T12:53:04;96599.03;;;29.40;42.53
47556;BME280;33291;46.222;26.460;2023-07-16T12:55:29;96592.31;;;29.37;43.54
47556;BME280;33291;46.222;26.460;2023-07-16T12:57:56;96593.59;;;29.35;45.37